Terminal Aerodrome Forecast
Issued by NWS

Home | Current Version | Previous Version | Text Only | Print | Product List | Glossary On
Versions: 1 2 3 4 5 6 7 8 9 10 11 12 13 14 15 16
485
FTUS44 KBMX 212159 AAA
TAFTOI
TAF AMD
KTOI 212159Z 2122/2218 VRB03KT P6SM OVC035
     FM220000 00000KT P6SM SCT250
     FM220900 34005KT P6SM BKN025
     FM221300 36010KT P6SM SCT035=

USA.gov is the U.S. government's official web portal to all federal, state and local government web resources and services.